Flight Track Log - Related Links

Times and Time Zones

All times are in EDT time to prevent confusion due to time zone crossing. See the SWA494 flight status page for this flight to view local times or setup timezone preferences in your user account.

Time Position Orientation Groundspeed Altitude Reporting Facility
EDT Latitude Longitude Course Direction KTS MPH feet Rate Location/Type
Mon 11:37:33 AM 34.1667 -118.3667 220° Southwest 165 190 2,200  Level Southern California TRACON
Mon 11:38:27 AM 34.1333 -118.4000 220° Southwest 228 262 4,000 3,258 Climbing Southern California TRACON
Mon 11:40:39 AM 34.1861 -118.5308 296° West 203 234 12,300 3,186 Climbing Los Angeles Center
Mon 11:41:41 AM 34.2475 -118.5631 337° Northwest 241 277 14,300 2,855 Climbing Los Angeles Center
Mon 11:42:43 AM 34.3214 -118.6025 336° Northwest 286 329 18,200 3,532 Climbing Los Angeles Center
Mon 11:43:45 AM 34.3967 -118.6425 336° Northwest 298 343 21,600 2,952 Climbing Los Angeles Center
Mon 11:44:47 AM 34.4772 -118.6867 336° Northwest 315 362 24,300 2,565 Climbing Los Angeles Center
Mon 11:45:49 AM 34.5625 -118.7322 336° Northwest 331 381 26,900 1,805 Climbing Los Angeles Center
Mon 11:46:50 AM 34.6539 -118.7819 336° Northwest 356 410 28,000 537 Climbing Los Angeles Center
Mon 11:47:52 AM 34.7706 -118.8444 336° Northwest 380 437 28,000  Level Los Angeles Center
Mon 11:48:54 AM 34.8583 -118.9078 329° Northwest 370 426 28,000  Level Los Angeles Center
Mon 11:49:56 AM 34.9322 -118.9678 326° Northwest 355 409 28,000  Level Los Angeles Center
Mon 11:50:58 AM 35.0286 -119.0453 327° Northwest 348 400 28,000  Level Los Angeles Center
Mon 11:52:00 AM 35.1050 -119.1106 325° Northwest 338 389 28,000  Level Los Angeles Center
Mon 11:53:02 AM 35.1828 -119.1731 327° Northwest 337 388 28,000  Level Los Angeles Center
Mon 11:54:04 AM 35.2578 -119.2339 326° Northwest 328 377 28,000  Level Los Angeles Center
Mon 11:55:06 AM 35.3350 -119.2978 326° Northwest 334 384 28,000  Level Los Angeles Center
Mon 11:56:08 AM 35.3778 -119.3967 298° West 339 390 28,000 -224 Level Los Angeles Center
Mon 11:56:53 AM 35.4056 -119.4772 293° West 334 384 27,600 -1,472 Descending Oakland Center
Mon 11:57:54 AM 35.4400 -119.5797 292° West 327 376 25,400 -1,770 Descending Oakland Center
Mon 11:58:55 AM 35.4694 -119.6733 291° West 301 346 24,000 -1,475 Descending Oakland Center
Mon 11:59:56 AM 35.5061 -119.7864 292° West 297 342 22,400 -976 Descending Oakland Center
Mon 12:00:58 PM 35.5356 -119.8783 292° West 293 337 22,000 -195 Descending Oakland Center
Mon 12:01:59 PM 35.5644 -119.9700 291° West 289 333 22,000  Level Oakland Center
Mon 12:03:00 PM 35.5936 -120.0617 291° West 289 333 22,000  Level Oakland Center
Mon 12:04:02 PM 35.6231 -120.1533 292° West 292 336 22,000  Level Oakland Center
Mon 12:05:03 PM 35.6514 -120.2447 291° West 289 333 22,000  Level Oakland Center
Mon 12:06:04 PM 35.6800 -120.3367 291° West 291 335 22,000  Level Oakland Center
Mon 12:07:06 PM 35.7253 -120.4394 299° West 287 330 22,000  Level Oakland Center
Mon 12:08:07 PM 35.7775 -120.5142 311° West 288 331 22,000  Level Oakland Center
Mon 12:09:08 PM 35.8339 -120.5861 314° West 291 335 22,000  Level Oakland Center
Mon 12:10:09 PM 35.8889 -120.6589 313° West 291 335 22,000  Level Oakland Center
Mon 12:11:11 PM 35.9442 -120.7314 313° West 291 335 22,000  Level Oakland Center
Mon 12:12:12 PM 35.9992 -120.8050 313° West 292 336 22,000  Level Oakland Center
Mon 12:13:13 PM 36.0547 -120.8794 313° West 294 338 22,000  Level Oakland Center
Mon 12:14:15 PM 36.1097 -120.9533 313° West 293 337 22,000  Level Oakland Center
Mon 12:15:16 PM 36.1758 -121.0419 313° West 292 336 22,000  Level Oakland Center
Mon 12:16:17 PM 36.2303 -121.1150 313° West 290 334 22,000  Level Oakland Center
Mon 12:17:18 PM 36.2836 -121.1881 312° West 288 331 22,000  Level Oakland Center
Mon 12:18:20 PM 36.3397 -121.2594 314° West 289 333 22,000  Level Oakland Center
Mon 12:19:21 PM 36.3919 -121.3353 311° West 289 333 22,000 -492 Level Oakland Center
Mon 12:20:22 PM 36.4481 -121.4064 314° West 287 330 21,000 -984 Descending Oakland Center
Mon 12:21:23 PM 36.5233 -121.4353 343° North 285 328 20,000 -1,073 Descending Oakland Center
Mon 12:22:25 PM 36.6006 -121.4544 349° North 283 326 18,800 -1,610 Descending Oakland Center
Mon 12:23:26 PM 36.6742 -121.4733 348° North 272 313 16,700 -2,016 Descending Oakland Center
Mon 12:24:27 PM 36.7447 -121.4911 349° North 260 299 14,700 -2,098 Descending Oakland Center
Mon 12:25:29 PM 36.8242 -121.5103 349° North 244 281 12,400 -1,951 Descending Oakland Center
Mon 12:26:30 PM 36.8836 -121.5261 348° North 232 267 10,700 -1,180 Descending Oakland Center
Mon 12:27:31 PM 36.9486 -121.5439 348° North 235 270 10,000 -1,230 Descending Oakland Center
Mon 12:28:32 PM 37.0128 -121.5603 348° North 235 270 8,200 -1,610 Descending Oakland Center
Mon 12:29:34 PM 37.0683 -121.6056 327° Northwest 236 272 6,700 -1,171 Descending Oakland Center
Mon 12:30:35 PM 37.1114 -121.6564 317° Northwest 218 251 5,800 -759 Descending Oakland Center
Mon 12:31:01 PM 37.1333 -121.6833 316° Northwest 179 206 5,600 -492 Descending Northern Cal TRACON
Mon 12:31:36 PM 37.1469 -121.6961 323° Northwest 185 213 5,300 -438 Descending Oakland Center
Mon 12:32:37 PM 37.1733 -121.7269 317° Northwest 131 151 4,900 -537 Descending Oakland Center
Mon 12:33:39 PM 37.1975 -121.7517 321° Northwest 117 135 4,200 -683 Descending Oakland Center
Mon 12:34:40 PM 37.2211 -121.7775 319° Northwest 114 131 3,500 -639 Descending Oakland Center
Mon 12:35:41 PM 37.2458 -121.8053 318° Northwest 116 133 2,900 -634 Descending Oakland Center
Mon 12:36:43 PM 37.2717 -121.8325 320° Northwest 119 137 2,200 -683 Descending Oakland Center
Mon 12:37:44 PM 37.2967 -121.8603 319° Northwest 120 138 1,500 -639 Descending Oakland Center
Mon 12:38:45 PM 37.3211 -121.8867 319° Northwest 118 136 900 -639 Descending Oakland Center
Mon 12:39:46 PM 37.3461 -121.9128 320° Northwest 118 136 200 -689 Descending Oakland Center
Mon 12:41:00 PM 37.3500 -121.9167 North  Level FlightAware Approximate
Mon 12:48:00 PM 37.3627 -121.9291 North  Level Estimated
Mon 12:49:00 PM 37.3627 -121.9291 North  Level Estimated

Login

Don't have an account? Register now (free) for customized features, flight alerts, and more!